createdAt,value
2024-02-08T00:02:22.252Z,5.23
2024-02-08T00:04:51.448Z,5.00
2024-02-08T00:07:19.680Z,5.70
2024-02-08T00:09:47.720Z,5.27
2024-02-08T00:12:17.764Z,5.83
2024-02-08T00:14:45.778Z,6.30
2024-02-08T00:17:13.758Z,6.07
2024-02-08T00:19:41.677Z,5.63
2024-02-08T00:22:09.822Z,5.40
2024-02-08T00:24:38.399Z,5.57
2024-02-08T00:27:06.616Z,5.93
2024-02-08T00:29:34.665Z,5.60
2024-02-08T00:32:02.872Z,5.27
2024-02-08T00:34:31.117Z,7.10
2024-02-08T00:36:59.188Z,6.40
2024-02-08T00:39:27.157Z,7.00
2024-02-08T00:41:58.558Z,7.00
2024-02-08T00:44:28.841Z,7.65
2024-02-08T00:46:56.942Z,7.13
2024-02-08T00:49:25.065Z,7.67
2024-02-08T00:51:53.136Z,6.83
2024-02-08T00:54:21.165Z,7.50
2024-02-08T00:56:50.715Z,7.40
2024-02-08T00:59:18.747Z,7.30
2024-02-08T01:01:46.865Z,7.60
2024-02-08T01:04:14.895Z,7.77
2024-02-08T01:06:43.499Z,8.90
2024-02-08T01:09:11.534Z,7.80
2024-02-08T01:11:39.595Z,7.70
2024-02-08T01:14:07.592Z,8.40
2024-02-08T01:16:44.616Z,8.93
2024-02-08T01:19:12.789Z,8.73
2024-02-08T01:21:40.834Z,7.80
2024-02-08T01:24:10.380Z,8.70
2024-02-08T01:26:38.661Z,7.40
2024-02-08T01:29:08.015Z,8.43
2024-02-08T01:31:38.620Z,8.10
2024-02-08T01:34:07.077Z,9.40
2024-02-08T01:36:37.079Z,8.73
2024-02-08T01:39:13.869Z,8.43
2024-02-08T01:41:44.013Z,8.50
2024-02-08T01:44:14.633Z,8.77
2024-02-08T01:46:43.045Z,7.77
2024-02-08T01:49:20.414Z,8.37
2024-02-08T01:51:48.679Z,9.57
2024-02-08T01:54:18.012Z,10.27
2024-02-08T01:56:48.942Z,9.23
2024-02-08T01:59:21.162Z,8.47
2024-02-08T02:01:52.163Z,8.77
2024-02-08T02:04:20.293Z,9.10
2024-02-08T02:06:48.491Z,8.43
2024-02-08T02:09:25.277Z,8.13
2024-02-08T02:11:57.017Z,8.47
2024-02-08T02:14:30.933Z,8.35
2024-02-08T02:17:11.604Z,7.97
2024-02-08T02:19:40.989Z,8.13
2024-02-08T02:22:12.817Z,8.00
2024-02-08T02:24:44.575Z,8.57
2024-02-08T02:27:13.308Z,8.50
2024-02-08T02:29:41.590Z,7.97
2024-02-08T02:32:13.126Z,8.73
2024-02-08T02:34:43.747Z,8.23
2024-02-08T02:37:12.810Z,7.93
2024-02-08T02:39:41.022Z,7.80
2024-02-08T02:42:10.304Z,7.67
2024-02-08T02:44:38.739Z,6.90
2024-02-08T02:47:07.215Z,7.10
2024-02-08T02:49:38.528Z,7.73
2024-02-08T02:52:10.499Z,6.70
2024-02-08T02:54:42.126Z,8.03
2024-02-08T02:57:12.400Z,5.77
2024-02-08T02:59:43.483Z,6.17
2024-02-08T03:02:11.730Z,6.40
2024-02-08T03:04:41.387Z,6.70
2024-02-08T03:07:11.983Z,6.63
2024-02-08T03:09:40.211Z,6.60
2024-02-08T03:12:11.302Z,6.33
2024-02-08T03:14:39.482Z,7.07
2024-02-08T03:17:08.088Z,6.50
2024-02-08T03:19:37.522Z,6.80
2024-02-08T03:22:09.953Z,5.83
2024-02-08T03:27:07.077Z,5.70
2024-02-08T03:29:37.880Z,6.07
2024-02-08T03:32:06.149Z,7.13
2024-02-08T03:34:36.804Z,5.90
2024-02-08T03:37:07.761Z,6.40
2024-02-08T03:39:36.923Z,5.22
2024-02-08T03:42:05.835Z,5.83
2024-02-08T03:44:35.522Z,5.37
2024-02-08T03:47:09.893Z,6.00
2024-02-08T03:49:39.152Z,5.87
2024-02-08T03:52:10.219Z,5.13
2024-02-08T03:54:38.643Z,5.50
2024-02-08T03:57:07.654Z,5.27
2024-02-08T03:59:41.672Z,6.40
2024-02-08T04:02:13.366Z,5.77
2024-02-08T04:04:52.006Z,4.88
2024-02-08T04:07:21.639Z,5.63
2024-02-08T04:09:56.432Z,5.40
2024-02-08T04:12:43.951Z,4.63
2024-02-08T04:15:33.178Z,5.23
2024-02-08T04:18:20.081Z,5.20
2024-02-08T04:21:07.006Z,5.30
2024-02-08T04:23:53.818Z,5.40
2024-02-08T04:26:40.704Z,6.43
2024-02-08T04:29:27.276Z,5.57
2024-02-08T04:32:14.166Z,6.03
2024-02-08T04:35:01.278Z,5.73
2024-02-08T04:37:48.130Z,5.67
2024-02-08T04:40:35.154Z,5.60
2024-02-08T04:43:22.015Z,5.27
2024-02-08T04:46:08.946Z,6.77
2024-02-08T04:48:55.720Z,7.27
2024-02-08T04:51:42.520Z,6.40
2024-02-08T04:54:11.755Z,5.87
2024-02-08T04:56:39.883Z,7.23
2024-02-08T04:59:21.032Z,6.07
2024-02-08T05:01:51.757Z,6.13
2024-02-08T05:04:22.226Z,5.47
2024-02-08T05:06:51.290Z,7.07
2024-02-08T05:09:20.939Z,8.30
2024-02-08T05:11:50.375Z,7.13
2024-02-08T05:14:24.005Z,7.40
2024-02-08T05:16:59.862Z,7.90
2024-02-08T05:19:28.532Z,6.70
2024-02-08T05:22:00.383Z,6.07
2024-02-08T05:24:29.616Z,6.80
2024-02-08T05:26:58.378Z,7.57
2024-02-08T05:29:26.585Z,7.50
2024-02-08T05:31:54.655Z,7.97
2024-02-08T05:34:26.773Z,7.80
2024-02-08T05:36:57.114Z,8.23
2024-02-08T05:39:27.209Z,8.70
2024-02-08T05:41:58.374Z,8.87
2024-02-08T05:44:32.040Z,9.73
2024-02-08T05:47:10.856Z,7.47
2024-02-08T05:49:47.450Z,8.80
2024-02-08T05:52:16.120Z,7.80
2024-02-08T05:54:47.567Z,9.03
2024-02-08T05:57:16.360Z,8.13
2024-02-08T05:59:46.520Z,8.00
2024-02-08T06:02:16.873Z,9.33
2024-02-08T06:04:52.847Z,8.77
2024-02-08T06:07:22.292Z,8.03
2024-02-08T06:09:56.681Z,8.77
2024-02-08T06:12:43.641Z,7.33
2024-02-08T06:15:31.150Z,7.37
2024-02-08T06:18:00.441Z,7.20
2024-02-08T06:20:35.511Z,7.33
2024-02-08T06:23:24.254Z,7.07
2024-02-08T06:26:24.433Z,6.83
2024-02-08T06:28:55.688Z,7.77
2024-02-08T06:31:35.311Z,6.30
2024-02-08T06:34:29.210Z,6.03
2024-02-08T06:37:17.431Z,7.47
2024-02-08T06:39:56.952Z,7.37
2024-02-08T06:43:01.439Z,5.57
2024-02-08T06:45:33.199Z,5.70
2024-02-08T06:48:01.752Z,6.93
2024-02-08T06:50:48.771Z,7.07
2024-02-08T06:53:38.697Z,6.90
2024-02-08T06:56:25.929Z,6.10
2024-02-08T06:59:12.585Z,5.73
2024-02-08T07:01:59.383Z,6.13
2024-02-08T07:04:46.150Z,5.93
2024-02-08T07:07:33.089Z,6.17
2024-02-08T07:10:20.139Z,5.83
2024-02-08T07:13:06.610Z,6.23
2024-02-08T07:15:53.441Z,6.87
2024-02-08T07:18:49.121Z,6.40
2024-02-08T07:21:39.749Z,6.07
2024-02-08T07:24:27.212Z,6.53
2024-02-08T07:27:14.138Z,6.13
2024-02-08T07:30:04.345Z,6.03
2024-02-08T07:32:52.152Z,6.00
2024-02-08T07:35:39.298Z,7.60
2024-02-08T07:38:08.989Z,6.50
2024-02-08T07:40:37.877Z,6.17
2024-02-08T07:43:33.209Z,6.17
2024-02-08T07:46:05.868Z,5.57
2024-02-08T07:48:41.365Z,4.53
2024-02-08T07:51:10.722Z,4.27
2024-02-08T07:53:55.373Z,3.90
2024-02-08T07:56:30.735Z,4.43
2024-02-08T07:59:06.645Z,3.83
2024-02-08T08:01:45.361Z,3.73
2024-02-08T08:04:29.309Z,3.90
2024-02-08T08:07:01.650Z,3.20
2024-02-08T08:09:29.916Z,3.73
2024-02-08T08:11:58.009Z,4.17
2024-02-08T08:14:57.960Z,4.03
2024-02-08T08:17:35.208Z,3.27
2024-02-08T08:20:17.972Z,4.07
2024-02-08T08:22:56.117Z,3.70
2024-02-08T08:25:30.549Z,3.60
2024-02-08T08:28:37.517Z,3.70
2024-02-08T08:31:34.895Z,3.37
2024-02-08T08:34:22.177Z,3.00
2024-02-08T08:37:03.589Z,3.10
2024-02-08T08:39:50.683Z,3.65
2024-02-08T08:42:19.246Z,3.37
2024-02-08T08:44:52.877Z,3.80
2024-02-08T08:47:25.596Z,3.47
2024-02-08T08:49:54.068Z,3.73
2024-02-08T08:52:25.359Z,3.97
2024-02-08T08:55:11.825Z,3.47
2024-02-08T08:57:40.010Z,4.80
2024-02-08T09:00:21.222Z,4.35
2024-02-08T09:02:52.058Z,3.90
2024-02-08T09:05:29.520Z,3.90
2024-02-08T09:07:57.735Z,3.90
2024-02-08T09:10:25.808Z,3.80
2024-02-08T09:13:01.355Z,3.20
2024-02-08T09:15:29.837Z,4.15
2024-02-08T09:18:10.481Z,3.67
2024-02-08T09:20:39.543Z,3.60
2024-02-08T09:23:14.439Z,3.53
2024-02-08T09:25:45.785Z,3.97
2024-02-08T09:28:37.259Z,4.47
2024-02-08T09:31:14.625Z,3.63
2024-02-08T09:33:51.567Z,3.63
2024-02-08T09:36:19.745Z,4.72
2024-02-08T09:38:52.009Z,3.80
2024-02-08T09:41:27.324Z,4.00
2024-02-08T09:43:58.339Z,3.03
2024-02-08T09:46:49.664Z,3.83
2024-02-08T09:49:19.772Z,3.42
2024-02-08T09:51:57.520Z,4.38
2024-02-08T09:54:31.954Z,4.63
2024-02-08T09:57:22.908Z,4.15
2024-02-08T10:00:02.007Z,4.65
2024-02-08T10:02:54.540Z,4.07
2024-02-08T10:05:42.012Z,4.00
2024-02-08T10:08:13.128Z,4.28
2024-02-08T10:11:07.473Z,4.85
2024-02-08T10:13:54.380Z,3.40
2024-02-08T10:16:43.202Z,4.07
2024-02-08T10:19:37.229Z,4.65
2024-02-08T10:22:28.239Z,4.00
2024-02-08T10:24:56.369Z,3.83
2024-02-08T10:27:24.474Z,4.70
2024-02-08T10:29:57.773Z,4.05
2024-02-08T10:32:29.011Z,4.15
2024-02-08T10:35:14.999Z,5.07
2024-02-08T10:37:50.672Z,4.70
2024-02-08T10:40:37.350Z,4.28
2024-02-08T10:43:18.994Z,4.07
2024-02-08T10:45:55.757Z,4.07
2024-02-08T10:48:24.937Z,3.92
2024-02-08T10:50:53.695Z,4.57
2024-02-08T10:53:44.596Z,5.25
2024-02-08T10:56:17.748Z,4.63
2024-02-08T10:59:05.285Z,4.57
2024-02-08T11:01:39.052Z,4.85
2024-02-08T11:04:21.843Z,4.68
2024-02-08T11:06:58.020Z,4.53
2024-02-08T11:09:29.105Z,4.78
2024-02-08T11:12:00.694Z,5.13
2024-02-08T11:14:31.289Z,4.53
2024-02-08T11:17:05.800Z,4.68
2024-02-08T11:19:40.947Z,4.70
2024-02-08T11:22:34.192Z,5.47
2024-02-08T11:25:20.276Z,5.15
2024-02-08T11:27:49.216Z,4.80
2024-02-08T11:30:23.709Z,5.03
2024-02-08T11:33:04.579Z,5.50
2024-02-08T11:35:46.757Z,5.10
2024-02-08T11:38:19.045Z,5.88
2024-02-08T11:40:49.056Z,5.53
2024-02-08T11:43:21.224Z,5.35
2024-02-08T11:45:53.573Z,4.85
2024-02-08T11:48:28.588Z,5.38
2024-02-08T11:51:00.375Z,6.68
2024-02-08T11:53:32.953Z,5.90
2024-02-08T11:56:03.398Z,5.35
2024-02-08T11:58:36.884Z,5.32
2024-02-08T12:01:05.599Z,5.32
2024-02-08T12:03:33.692Z,5.18
2024-02-08T12:06:02.441Z,4.85
2024-02-08T12:08:37.378Z,4.93
2024-02-08T12:11:11.135Z,5.95
2024-02-08T12:13:46.223Z,4.75
2024-02-08T12:16:16.265Z,5.03
2024-02-08T12:18:44.413Z,5.22
2024-02-08T12:21:18.960Z,4.10
2024-02-08T12:23:54.384Z,4.63
2024-02-08T12:26:31.218Z,5.70
2024-02-08T12:29:03.454Z,4.53
2024-02-08T12:34:04.869Z,4.82
2024-02-08T12:36:35.107Z,4.80
2024-02-08T12:39:18.904Z,4.75
2024-02-08T12:41:48.050Z,5.03
2024-02-08T12:44:16.710Z,5.90
2024-02-08T12:46:48.057Z,5.82
2024-02-08T12:49:17.078Z,5.25
2024-02-08T12:51:45.403Z,4.43
2024-02-08T12:54:16.272Z,3.63
2024-02-08T12:56:46.851Z,4.90
2024-02-08T12:59:20.176Z,4.57
2024-02-08T13:01:51.954Z,4.35
2024-02-08T13:04:21.229Z,3.80
2024-02-08T13:06:50.021Z,3.85
2024-02-08T13:09:27.699Z,3.40
2024-02-08T13:12:19.084Z,2.67
2024-02-08T13:14:50.242Z,3.97
2024-02-08T13:17:22.367Z,2.80
2024-02-08T13:19:50.947Z,2.30
2024-02-08T13:22:22.780Z,3.58
2024-02-08T13:24:53.195Z,3.50
2024-02-08T13:27:31.212Z,4.38
2024-02-08T13:30:00.158Z,3.00
2024-02-08T13:32:31.106Z,3.05
2024-02-08T13:35:02.122Z,2.35
2024-02-08T13:37:30.771Z,2.90
2024-02-08T13:40:04.793Z,2.90
2024-02-08T13:42:43.773Z,3.78
2024-02-08T13:45:26.630Z,3.30
2024-02-08T13:47:59.251Z,3.22
2024-02-08T13:50:33.140Z,3.17
2024-02-08T13:53:03.838Z,2.92
2024-02-08T13:55:45.806Z,2.60
2024-02-08T13:58:22.211Z,2.75
2024-02-08T14:00:50.745Z,2.55
2024-02-08T14:03:21.518Z,2.75
2024-02-08T14:05:55.260Z,3.03
2024-02-08T14:08:29.628Z,2.72
2024-02-08T14:10:59.781Z,3.33
2024-02-08T14:13:32.787Z,3.42
2024-02-08T14:16:07.448Z,3.65
2024-02-08T14:18:39.225Z,3.70
2024-02-08T14:21:11.510Z,3.10
2024-02-08T14:23:42.502Z,3.58
2024-02-08T14:26:22.815Z,3.17
2024-02-08T14:28:56.834Z,3.60
2024-02-08T14:31:25.212Z,3.25
2024-02-08T14:33:53.410Z,3.45
2024-02-08T14:36:21.463Z,4.13
2024-02-08T14:38:49.906Z,3.60
2024-02-08T14:41:28.021Z,4.10
2024-02-08T14:44:07.694Z,2.47
2024-02-08T14:46:38.412Z,4.50
2024-02-08T14:49:18.932Z,3.40
2024-02-08T14:51:51.439Z,4.22
2024-02-08T14:54:20.359Z,4.28
2024-02-08T14:57:05.611Z,4.15
2024-02-08T14:59:51.988Z,3.78
2024-02-08T15:02:24.212Z,3.45
2024-02-08T15:07:49.520Z,3.47
2024-02-08T15:10:22.961Z,2.95
2024-02-08T15:12:58.408Z,3.45
2024-02-08T15:15:35.344Z,3.05
2024-02-08T15:18:14.071Z,3.45
2024-02-08T15:20:48.360Z,3.45
2024-02-08T15:23:33.652Z,3.88
2024-02-08T15:26:14.139Z,3.55
2024-02-08T15:28:56.921Z,3.60
2024-02-08T15:31:40.769Z,3.37
2024-02-08T15:34:20.708Z,3.75
2024-02-08T15:36:50.193Z,3.43
2024-02-08T15:39:48.569Z,3.85
2024-02-08T15:42:33.032Z,3.67
2024-02-08T15:45:01.567Z,3.73
2024-02-08T15:47:30.359Z,3.95
2024-02-08T15:49:59.701Z,4.00
2024-02-08T15:52:35.644Z,3.70
2024-02-08T15:55:16.768Z,4.50
2024-02-08T15:57:55.788Z,4.35
2024-02-08T16:00:43.099Z,4.50
2024-02-08T16:03:18.828Z,4.63
2024-02-08T16:05:47.993Z,5.40
2024-02-08T16:08:16.206Z,5.82
2024-02-08T16:10:45.971Z,6.07
2024-02-08T16:13:15.170Z,6.65
2024-02-08T16:15:58.456Z,6.07
2024-02-08T16:18:27.936Z,5.90
2024-02-08T16:20:56.840Z,5.87
2024-02-08T16:23:28.070Z,6.10
2024-02-08T16:26:11.129Z,6.53
2024-02-08T16:28:46.445Z,6.00
2024-02-08T16:31:17.683Z,8.80
2024-02-08T16:33:49.536Z,8.85
2024-02-08T16:36:48.054Z,8.87
2024-02-08T16:39:34.363Z,8.80
2024-02-08T16:42:02.750Z,8.70
2024-02-08T16:44:32.177Z,8.60
2024-02-08T16:47:07.054Z,7.57
2024-02-08T16:49:42.028Z,7.90
2024-02-08T16:52:20.485Z,6.83
2024-02-08T16:54:58.243Z,6.53
2024-02-08T16:57:31.487Z,7.20
2024-02-08T17:00:19.791Z,6.63
2024-02-08T17:03:05.377Z,7.90
2024-02-08T17:05:52.492Z,13.47
2024-02-08T17:08:31.092Z,8.00
2024-02-08T17:11:02.813Z,8.03
2024-02-08T17:13:46.141Z,7.97
2024-02-08T17:16:36.978Z,7.43
2024-02-08T17:19:30.988Z,8.90
2024-02-08T17:22:18.685Z,6.77
2024-02-08T17:25:20.497Z,6.63
2024-02-08T17:28:15.176Z,7.68
2024-02-08T17:31:15.739Z,8.03
2024-02-08T17:33:48.229Z,8.63
2024-02-08T17:36:16.599Z,8.00
2024-02-08T17:38:45.514Z,7.00
2024-02-08T17:41:17.511Z,7.63
2024-02-08T17:43:51.025Z,8.27
2024-02-08T17:46:22.207Z,9.20
2024-02-08T17:48:57.281Z,8.90
2024-02-08T17:51:40.824Z,10.07
2024-02-08T17:54:08.948Z,11.23
2024-02-08T17:56:43.260Z,12.50
2024-02-08T17:59:17.408Z,14.53
2024-02-08T18:01:57.523Z,14.03
2024-02-08T18:04:29.027Z,12.83
2024-02-08T18:07:09.347Z,12.33
2024-02-08T18:09:41.409Z,9.33
2024-02-08T18:12:15.907Z,8.53
2024-02-08T18:14:44.045Z,8.83
2024-02-08T18:17:16.194Z,9.20
2024-02-08T18:19:47.191Z,8.23
2024-02-08T18:22:15.993Z,7.77
2024-02-08T18:24:50.970Z,7.83
2024-02-08T18:27:23.562Z,7.27
2024-02-08T18:29:52.474Z,7.60
2024-02-08T18:32:20.649Z,7.97
2024-02-08T18:34:50.708Z,7.63
2024-02-08T18:37:26.192Z,8.13
2024-02-08T18:39:59.916Z,8.70
2024-02-08T18:42:33.605Z,8.07
2024-02-08T18:45:08.431Z,8.23
2024-02-08T18:47:37.688Z,8.40
2024-02-08T18:50:09.393Z,7.63
2024-02-08T18:52:37.904Z,7.50
2024-02-08T18:55:10.563Z,8.83
2024-02-08T18:57:38.883Z,8.63
2024-02-08T19:00:14.438Z,7.13
2024-02-08T19:02:43.220Z,7.53
2024-02-08T19:05:14.143Z,7.17
2024-02-08T19:07:43.437Z,7.53
2024-02-08T19:10:14.422Z,8.20
2024-02-08T19:12:42.549Z,8.43
2024-02-08T19:15:11.063Z,8.73
2024-02-08T19:17:45.501Z,8.87
2024-02-08T19:20:27.054Z,8.30
2024-02-08T19:22:58.422Z,8.23
2024-02-08T19:25:30.614Z,8.02
2024-02-08T19:28:00.486Z,7.17
2024-02-08T19:30:28.820Z,8.07
2024-02-08T19:33:00.176Z,8.43
2024-02-08T19:35:28.790Z,6.78
2024-02-08T19:37:58.196Z,7.13
2024-02-08T19:40:28.350Z,7.13
2024-02-08T19:42:56.540Z,6.77
2024-02-08T19:45:32.262Z,6.73
2024-02-08T19:48:01.814Z,7.67
2024-02-08T19:50:30.116Z,7.20
2024-02-08T19:53:07.402Z,8.37
2024-02-08T19:55:40.120Z,6.90
2024-02-08T19:58:09.193Z,7.73
2024-02-08T20:00:39.087Z,7.07
2024-02-08T20:03:21.918Z,8.13
2024-02-08T20:05:51.955Z,6.67
2024-02-08T20:08:21.994Z,7.13
2024-02-08T20:10:50.546Z,6.73
2024-02-08T20:13:25.909Z,7.97
2024-02-08T20:15:54.285Z,7.80
2024-02-08T20:18:22.814Z,8.00
2024-02-08T20:20:53.505Z,8.13
2024-02-08T20:23:23.451Z,8.20
2024-02-08T20:25:55.465Z,8.67
2024-02-08T20:28:24.183Z,8.10
2024-02-08T20:30:56.022Z,7.63
2024-02-08T20:33:24.960Z,6.70
2024-02-08T20:35:56.915Z,6.50
2024-02-08T20:38:31.707Z,8.52
2024-02-08T20:40:59.899Z,7.40
2024-02-08T20:43:28.138Z,7.27
2024-02-08T20:45:58.654Z,7.83
2024-02-08T20:48:27.827Z,7.57
2024-02-08T20:50:56.951Z,7.63
2024-02-08T20:53:25.030Z,7.80
2024-02-08T20:55:56.811Z,7.77
2024-02-08T20:58:26.058Z,8.00
2024-02-08T21:00:54.439Z,7.57
2024-02-08T21:03:27.566Z,7.43
2024-02-08T21:05:56.678Z,7.53
2024-02-08T21:08:26.545Z,7.53
2024-02-08T21:10:58.204Z,7.67
2024-02-08T21:13:27.063Z,7.20
2024-02-08T21:15:55.999Z,6.77
2024-02-08T21:18:24.187Z,7.37
2024-02-08T21:20:52.485Z,8.00
2024-02-08T21:23:21.261Z,7.73
2024-02-08T21:25:52.543Z,7.23
2024-02-08T21:28:21.095Z,7.28
2024-02-08T21:30:50.838Z,7.73
2024-02-08T21:33:19.082Z,7.40
2024-02-08T21:35:47.222Z,7.57
2024-02-08T21:38:17.340Z,7.00
2024-02-08T21:40:47.493Z,6.90
2024-02-08T21:43:18.875Z,6.40
2024-02-08T21:45:48.209Z,6.60
2024-02-08T21:48:17.468Z,7.40
2024-02-08T21:50:50.189Z,8.33
2024-02-08T21:53:18.527Z,7.27
2024-02-08T21:55:46.621Z,8.83
2024-02-08T21:58:14.840Z,7.33
2024-02-08T22:03:34.402Z,7.40
2024-02-08T22:06:02.732Z,7.47
2024-02-08T22:08:30.984Z,6.97
2024-02-08T22:10:59.140Z,7.37
2024-02-08T22:13:29.368Z,6.43
2024-02-08T22:15:57.990Z,6.70
2024-02-08T22:18:26.570Z,6.87
2024-02-08T22:20:54.646Z,6.87
2024-02-08T22:23:22.777Z,6.13
2024-02-08T22:25:51.157Z,6.17
2024-02-08T22:28:19.259Z,6.10
2024-02-08T22:30:47.503Z,6.93
2024-02-08T22:33:18.269Z,6.70
2024-02-08T22:35:46.640Z,6.27
2024-02-08T22:38:14.986Z,6.30
2024-02-08T22:40:45.156Z,7.63
2024-02-08T22:43:13.894Z,5.87
2024-02-08T22:45:42.412Z,5.93
2024-02-08T22:48:14.332Z,6.20
2024-02-08T22:50:42.449Z,6.40
2024-02-08T22:53:13.871Z,6.90
2024-02-08T22:55:43.691Z,6.70
2024-02-08T22:58:15.054Z,7.67
2024-02-08T23:00:49.870Z,6.25
2024-02-08T23:03:18.744Z,6.83
2024-02-08T23:05:58.659Z,6.70
2024-02-08T23:08:27.356Z,6.70
2024-02-08T23:10:55.517Z,5.37
2024-02-08T23:13:23.600Z,6.17
2024-02-08T23:15:53.998Z,6.40
2024-02-08T23:18:23.671Z,6.77
2024-02-08T23:20:54.921Z,7.23
2024-02-08T23:23:23.230Z,5.63
2024-02-08T23:25:51.200Z,6.63
2024-02-08T23:28:22.476Z,7.37
2024-02-08T23:30:51.857Z,7.47
2024-02-08T23:33:24.266Z,7.30
2024-02-08T23:35:53.130Z,7.77
2024-02-08T23:38:22.020Z,7.07
2024-02-08T23:40:50.368Z,7.00
2024-02-08T23:43:18.658Z,7.80
2024-02-08T23:45:47.478Z,7.17
2024-02-08T23:48:16.000Z,7.10
2024-02-08T23:50:47.568Z,5.67
2024-02-08T23:53:16.107Z,6.10
2024-02-08T23:55:44.108Z,6.50
2024-02-08T23:58:15.805Z,6.87
